OIBJ

Jam Airport

Airport
ICAO code
OIBJ
IATA Code
KNR
Summary
ICAO Region
MID
ICAO Territory
Location

Jam, Bushehr Province

Serving
Bandar Siraf and Kangan
Elevation
2164 ft
Coordinates
27° 48' 53" N , 52° 21' 30" E
KCC
Metar
Observation
OIBJ 070400Z AUTO VRB01KT //// // ////// 15/12 Q1022
Station
JAM AIRPORT
Date/Time
2022-12-07 04:00:00
Wind speed
01 kts
Lowest cloud amount
n/a
Temperature
15°C
Dew point
12°C
Humidity
82%
QNH
1022 hPa
Weather condition
n/a

Airport serving the communities in Kangan county, Bushehr province, Iran.

Climatology

Warm Desert climate (Köppen climate classification BWh).

Runways

Designator Length Width Surface Rops
11/29 2350 45 ASP No/No

Airport map

Aerial View

SKYbrary Partners:

Safety knowledge contributed by: